Time;durP1;ratioP1;P1;durP2;ratioP2;P2;SDS_P1;SDS_P2;PMS_P1;PMS_P2;Temp;Humidity;BMP_temperature;BMP_pressure;BME280_temperature;BME280_humidity;BME280_pressure;Samples;Min_cycle;Max_cycle;Signal;HPM_P1;HPM_P2
2023/05/23 00:00:11;;;;;;;31.00;19.42;;;15.40;99.90;;;;;;5059907;28;20021;-73
2023/05/23 00:02:37;;;;;;;31.42;18.08;;;15.40;99.90;;;;;;5061099;28;20040;-72
2023/05/23 00:05:03;;;;;;;29.45;17.45;;;15.30;99.90;;;;;;5064726;28;20017;-74
2023/05/23 00:07:31;;;;;;;26.02;15.57;;;15.30;99.90;;;;;;5064762;28;20029;-73
2023/05/23 00:09:57;;;;;;;25.85;16.02;;;15.30;99.90;;;;;;5064009;28;20136;-75
2023/05/23 00:12:22;;;;;;;25.55;15.82;;;15.30;99.90;;;;;;5063794;28;20017;-73
2023/05/23 00:14:52;;;;;;;22.65;14.48;;;15.30;99.90;;;;;;5063105;28;20029;-74
2023/05/23 00:17:18;;;;;;;21.70;15.07;;;15.20;99.90;;;;;;5063348;28;20021;-74
2023/05/23 00:19:44;;;;;;;25.38;14.63;;;15.30;99.90;;;;;;5064087;28;20397;-74
2023/05/23 00:22:11;;;;;;;24.13;14.95;;;15.20;99.90;;;;;;5063292;28;20031;-72
2023/05/23 00:24:37;;;;;;;25.52;15.98;;;15.30;99.90;;;;;;5063417;28;20367;-75
2023/05/23 00:27:03;;;;;;;22.88;15.18;;;15.30;99.90;;;;;;5065007;28;20067;-71
2023/05/23 00:29:29;;;;;;;22.27;15.20;;;15.20;99.90;;;;;;5063243;28;20025;-74
2023/05/23 00:31:54;;;;;;;22.73;16.00;;;15.20;99.90;;;;;;5064743;28;20102;-74
2023/05/23 00:34:20;;;;;;;27.77;16.40;;;15.10;99.90;;;;;;5064286;28;20385;-72
2023/05/23 00:36:50;;;;;;;25.48;16.25;;;15.10;99.90;;;;;;5064211;28;20067;-72
2023/05/23 00:39:18;;;;;;;24.45;15.88;;;15.10;99.90;;;;;;5064390;28;20028;-76
2023/05/23 00:41:46;;;;;;;24.30;15.73;;;15.10;99.90;;;;;;5062984;28;20025;-73
2023/05/23 00:44:12;;;;;;;25.38;15.55;;;15.10;99.90;;;;;;5063716;28;20017;-74
2023/05/23 00:46:37;;;;;;;23.58;15.27;;;15.00;99.90;;;;;;5064230;28;20052;-73
2023/05/23 00:49:03;;;;;;;24.15;15.38;;;15.10;99.90;;;;;;5063805;28;20053;-73
2023/05/23 00:51:30;;;;;;;25.27;14.60;;;15.00;99.90;;;;;;5062810;28;20045;-76
2023/05/23 00:53:58;;;;;;;26.23;16.48;;;15.00;99.90;;;;;;5064457;28;20025;-75
2023/05/23 00:56:25;;;;;;;22.33;15.23;;;15.00;99.90;;;;;;5062751;28;20037;-74
2023/05/23 00:58:52;;;;;;;21.13;14.45;;;15.10;99.90;;;;;;5064347;28;20017;-76
2023/05/23 01:01:18;;;;;;;21.30;13.60;;;15.00;99.90;;;;;;5064120;28;20112;-76
2023/05/23 01:03:44;;;;;;;20.85;13.23;;;15.10;99.90;;;;;;5063528;28;20021;-73
2023/05/23 01:06:10;;;;;;;20.25;12.90;;;15.10;99.90;;;;;;5063503;28;20017;-70
2023/05/23 01:08:36;;;;;;;18.25;12.95;;;15.10;99.90;;;;;;5063798;28;20044;-73
2023/05/23 01:11:10;;;;;;;18.58;12.90;;;15.00;99.90;;;;;;5062557;28;20043;-74
2023/05/23 01:14:00;;;;;;;18.00;12.02;;;15.00;99.90;;;;;;5063414;28;20067;-76
2023/05/23 01:16:37;;;;;;;19.45;12.52;;;15.00;99.90;;;;;;5062875;28;20040;-77
2023/05/23 01:19:22;;;;;;;17.67;12.20;;;14.90;99.90;;;;;;5063263;28;20025;-77
2023/05/23 01:21:53;;;;;;;17.58;11.60;;;15.00;99.90;;;;;;5061977;28;20025;-76
2023/05/23 01:24:54;;;;;;;18.83;12.82;;;15.00;99.90;;;;;;5061825;28;20115;-76
2023/05/23 01:27:36;;;;;;;20.23;12.02;;;14.90;99.90;;;;;;5063554;28;20025;-74
2023/05/23 01:30:06;;;;;;;18.08;12.30;;;14.90;99.90;;;;;;5062301;28;20036;-76
2023/05/23 01:32:32;;;;;;;20.92;13.40;;;14.90;99.90;;;;;;5062130;28;20028;-76
2023/05/23 01:34:59;;;;;;;18.23;12.57;;;14.80;99.90;;;;;;5061720;28;20036;-77
2023/05/23 01:37:25;;;;;;;18.60;12.52;;;14.80;99.90;;;;;;5063474;28;20029;-75
2023/05/23 01:39:50;;;;;;;17.65;12.60;;;14.80;99.90;;;;;;5062845;28;20032;-75
2023/05/23 01:42:17;;;;;;;18.70;12.77;;;14.80;99.90;;;;;;5062231;28;20022;-75
2023/05/23 01:44:44;;;;;;;17.95;11.93;;;14.80;99.90;;;;;;5061723;28;20117;-76
2023/05/23 01:47:11;;;;;;;14.90;11.25;;;14.70;99.90;;;;;;5062886;28;20040;-75
2023/05/23 01:49:38;;;;;;;17.92;12.05;;;14.80;99.90;;;;;;5062959;28;20060;-75
2023/05/23 01:52:08;;;;;;;18.95;11.40;;;14.80;99.90;;;;;;5063416;28;20064;-75
2023/05/23 01:54:36;;;;;;;17.33;11.80;;;14.70;99.90;;;;;;5062353;28;20036;-76
2023/05/23 01:57:02;;;;;;;18.95;11.65;;;14.80;99.90;;;;;;5061438;28;20059;-77
2023/05/23 01:59:28;;;;;;;21.88;13.98;;;14.80;99.90;;;;;;5061544;28;20025;-75
2023/05/23 02:01:54;;;;;;;22.00;13.68;;;14.80;99.90;;;;;;5062349;28;20017;-73
2023/05/23 02:04:20;;;;;;;19.88;12.15;;;14.80;99.90;;;;;;5061509;28;20540;-76
2023/05/23 02:06:46;;;;;;;18.33;12.95;;;14.80;99.90;;;;;;5062189;28;20021;-76
2023/05/23 02:09:12;;;;;;;18.73;12.43;;;14.80;99.90;;;;;;5062539;28;20021;-74
2023/05/23 02:11:37;;;;;;;22.23;13.25;;;14.80;99.90;;;;;;5061585;28;20028;-69
2023/05/23 02:14:03;;;;;;;19.33;13.98;;;14.80;99.90;;;;;;5062331;28;20025;-77
2023/05/23 02:16:28;;;;;;;24.65;15.68;;;14.80;99.90;;;;;;5059812;28;20044;-72
2023/05/23 02:18:55;;;;;;;27.30;17.13;;;14.80;99.90;;;;;;5061512;28;20123;-76
2023/05/23 02:21:22;;;;;;;29.42;19.23;;;14.80;99.90;;;;;;5062491;28;20044;-73
2023/05/23 02:23:47;;;;;;;35.15;19.23;;;14.80;99.90;;;;;;5062565;28;20017;-74
2023/05/23 02:26:13;;;;;;;34.38;20.38;;;14.70;99.90;;;;;;5060372;28;20075;-75
2023/05/23 02:28:38;;;;;;;34.63;20.67;;;14.80;99.90;;;;;;5062087;28;20035;-74
2023/05/23 02:31:05;;;;;;;34.95;20.35;;;14.80;99.90;;;;;;5061917;28;20040;-74
2023/05/23 02:33:31;;;;;;;33.60;20.88;;;14.70;99.90;;;;;;5062494;28;20024;-76
2023/05/23 02:35:56;;;;;;;35.97;22.40;;;14.70;99.90;;;;;;5060660;28;20071;-76
2023/05/23 02:38:22;;;;;;;49.13;24.95;;;14.70;99.90;;;;;;5060834;28;20088;-73
2023/05/23 02:40:49;;;;;;;44.80;25.77;;;14.70;99.90;;;;;;5060797;28;20033;-74
2023/05/23 02:43:14;;;;;;;48.38;25.67;;;14.70;99.90;;;;;;5060804;28;20032;-76
2023/05/23 02:45:43;;;;;;;46.85;25.27;;;14.70;99.90;;;;;;5059985;28;20056;-78
2023/05/23 02:48:10;;;;;;;51.15;27.02;;;14.70;99.90;;;;;;5061288;28;20063;-75
2023/05/23 02:50:36;;;;;;;59.33;29.40;;;14.80;99.90;;;;;;5060335;28;20045;-72
2023/05/23 02:53:02;;;;;;;53.47;28.45;;;14.70;99.90;;;;;;5061682;28;20647;-73
2023/05/23 02:55:30;;;;;;;58.30;30.30;;;14.70;99.90;;;;;;5061922;28;20079;-76
2023/05/23 02:57:57;;;;;;;64.05;30.05;;;14.70;99.90;;;;;;5061656;28;20075;-75
2023/05/23 03:00:23;;;;;;;67.25;30.58;;;14.70;99.90;;;;;;5060284;28;20040;-75
2023/05/23 03:02:49;;;;;;;59.75;29.83;;;14.70;99.90;;;;;;5061928;28;20501;-74
2023/05/23 03:05:15;;;;;;;70.15;32.53;;;14.60;99.90;;;;;;5061410;28;20024;-74
2023/05/23 03:07:40;;;;;;;71.35;33.38;;;14.60;99.90;;;;;;5061494;28;20056;-73
2023/05/23 03:10:06;;;;;;;77.82;34.50;;;14.70;99.90;;;;;;5061240;28;20487;-75
2023/05/23 03:12:32;;;;;;;82.78;35.35;;;14.60;99.90;;;;;;5059634;28;20074;-71
2023/05/23 03:14:58;;;;;;;82.60;35.90;;;14.60;99.90;;;;;;5060827;28;20409;-72
2023/05/23 03:17:26;;;;;;;85.75;40.20;;;14.60;99.90;;;;;;5060266;28;20059;-74
2023/05/23 03:19:52;;;;;;;80.53;37.70;;;14.60;99.90;;;;;;5061390;28;20054;-77
2023/05/23 03:22:21;;;;;;;90.22;39.00;;;14.40;99.90;;;;;;5061084;28;20060;-75
2023/05/23 03:24:47;;;;;;;96.82;39.58;;;14.50;99.90;;;;;;5059935;28;20023;-72
2023/05/23 03:27:12;;;;;;;90.53;40.15;;;14.40;99.90;;;;;;5060795;28;20076;-74
2023/05/23 03:29:38;;;;;;;92.47;39.85;;;14.40;99.90;;;;;;5059631;28;20028;-73
2023/05/23 03:32:05;;;;;;;87.10;41.00;;;14.40;99.90;;;;;;5061544;28;20529;-74
2023/05/23 03:34:33;;;;;;;87.95;40.10;;;14.30;99.90;;;;;;5061387;28;20106;-71
2023/05/23 03:36:58;;;;;;;87.28;39.67;;;14.30;99.90;;;;;;5059577;28;20040;-76
2023/05/23 03:39:24;;;;;;;91.95;39.47;;;14.30;99.90;;;;;;5062914;28;20025;-76
2023/05/23 03:41:50;;;;;;;89.10;40.35;;;14.20;99.90;;;;;;5064150;28;20025;-75
2023/05/23 03:44:15;;;;;;;83.97;37.75;;;14.20;99.90;;;;;;5065246;28;20475;-75
2023/05/23 03:46:41;;;;;;;86.82;39.33;;;14.20;99.90;;;;;;5064207;28;20040;-80
2023/05/23 03:49:06;;;;;;;83.85;39.67;;;14.20;99.90;;;;;;5064016;28;20067;-74
2023/05/23 03:51:33;;;;;;;88.72;39.75;;;14.30;99.90;;;;;;5065125;28;20518;-74
2023/05/23 03:53:58;;;;;;;100.32;39.67;;;14.10;99.90;;;;;;5065637;28;20075;-76
2023/05/23 03:56:25;;;;;;;84.15;38.75;;;14.10;99.90;;;;;;5062513;28;20033;-76
2023/05/23 03:58:50;;;;;;;91.93;36.90;;;14.10;99.90;;;;;;5054120;28;20125;-78
2023/05/23 04:01:16;;;;;;;80.32;34.08;;;14.10;99.90;;;;;;5062982;28;20056;-73
2023/05/23 04:03:41;;;;;;;79.38;33.10;;;14.10;99.90;;;;;;5064571;28;20512;-75
2023/05/23 04:06:07;;;;;;;83.60;32.88;;;14.10;99.90;;;;;;5064516;28;20057;-78
2023/05/23 04:08:32;;;;;;;79.30;31.63;;;13.90;99.90;;;;;;5065011;28;20108;-74
2023/05/23 04:11:00;;;;;;;68.78;29.10;;;14.10;99.90;;;;;;5063192;28;20040;-78
2023/05/23 04:13:26;;;;;;;72.95;31.38;;;14.00;99.90;;;;;;5063635;28;20116;-77
2023/05/23 04:15:54;;;;;;;74.03;32.00;;;14.00;99.90;;;;;;5064751;28;20025;-75
2023/05/23 04:18:22;;;;;;;80.70;31.73;;;14.00;99.90;;;;;;5064163;28;20107;-78
2023/05/23 04:20:48;;;;;;;80.70;32.97;;;14.00;99.90;;;;;;5064416;28;20111;-75
2023/05/23 04:23:13;;;;;;;76.95;33.47;;;14.00;99.90;;;;;;5062966;28;20029;-75
2023/05/23 04:25:39;;;;;;;71.57;33.90;;;14.00;99.90;;;;;;5062622;28;20116;-74
2023/05/23 04:28:05;;;;;;;64.72;31.40;;;13.90;99.90;;;;;;5064519;28;20051;-74
2023/05/23 04:30:32;;;;;;;73.75;34.47;;;13.90;99.90;;;;;;5064636;28;20020;-74
2023/05/23 04:32:59;;;;;;;75.72;33.95;;;13.80;99.90;;;;;;5064083;28;20025;-76
2023/05/23 04:35:27;;;;;;;69.55;31.70;;;13.90;99.90;;;;;;5064984;28;20040;-73
2023/05/23 04:37:55;;;;;;;53.53;27.60;;;13.80;99.90;;;;;;5062825;28;20044;-74
2023/05/23 04:40:23;;;;;;;48.88;24.92;;;13.80;99.90;;;;;;5064174;28;20021;-72
2023/05/23 04:42:50;;;;;;;49.72;26.40;;;13.70;99.90;;;;;;5064218;28;20105;-75
2023/05/23 04:45:16;;;;;;;48.55;26.23;;;13.70;99.90;;;;;;5063592;28;20028;-74
2023/05/23 04:47:43;;;;;;;39.90;24.10;;;13.60;99.90;;;;;;5064260;28;20021;-73
2023/05/23 04:50:10;;;;;;;43.75;24.30;;;13.70;99.90;;;;;;5062868;28;20417;-71
2023/05/23 04:52:35;;;;;;;51.67;24.58;;;13.60;99.90;;;;;;5063312;28;20029;-73
2023/05/23 04:55:01;;;;;;;51.42;27.50;;;13.50;99.90;;;;;;5064322;28;20036;-71
2023/05/23 04:57:27;;;;;;;45.10;23.27;;;13.50;99.90;;;;;;5062615;28;20060;-75
2023/05/23 04:59:52;;;;;;;46.13;22.77;;;13.50;99.90;;;;;;5063543;28;20036;-76
2023/05/23 05:02:18;;;;;;;45.92;23.95;;;13.50;99.90;;;;;;5061835;28;20113;-81
2023/05/23 05:04:44;;;;;;;50.65;24.05;;;13.50;99.90;;;;;;5060354;28;20060;-75
2023/05/23 05:07:10;;;;;;;56.17;26.25;;;13.50;99.90;;;;;;5061086;28;20047;-72
2023/05/23 05:09:36;;;;;;;57.70;25.33;;;13.40;99.90;;;;;;5062741;28;22186;-70
2023/05/23 05:12:01;;;;;;;56.17;27.08;;;13.40;99.90;;;;;;5061736;28;20033;-73
2023/05/23 05:14:27;;;;;;;57.63;27.02;;;13.40;99.90;;;;;;5062066;28;20055;-72
2023/05/23 05:16:56;;;;;;;65.18;28.35;;;13.30;99.90;;;;;;5063933;28;20063;-71
2023/05/23 05:19:23;;;;;;;70.78;28.00;;;13.30;99.90;;;;;;5063386;28;20021;-72
2023/05/23 05:21:51;;;;;;;66.47;26.63;;;13.30;99.90;;;;;;5062655;28;20044;-71
2023/05/23 05:24:19;;;;;;;59.53;25.70;;;13.30;99.90;;;;;;5063486;28;20132;-71
2023/05/23 05:26:45;;;;;;;57.05;24.38;;;13.20;99.90;;;;;;5061953;28;20500;-70
2023/05/23 05:29:12;;;;;;;63.92;23.88;;;13.20;99.90;;;;;;5063252;28;20041;-71
2023/05/23 05:31:37;;;;;;;56.30;23.17;;;13.20;99.90;;;;;;5063274;28;20466;-74
2023/05/23 05:34:03;;;;;;;51.90;20.58;;;13.10;99.90;;;;;;5061616;28;20035;-72
2023/05/23 05:36:28;;;;;;;50.78;20.30;;;13.10;99.90;;;;;;5063444;28;20029;-73
2023/05/23 05:38:54;;;;;;;47.50;19.40;;;13.10;99.90;;;;;;5061768;28;20028;-75
2023/05/23 05:41:21;;;;;;;40.28;18.98;;;13.10;99.90;;;;;;5063158;28;20016;-70
2023/05/23 05:43:46;;;;;;;41.33;17.98;;;13.10;99.90;;;;;;5063517;28;20021;-72
2023/05/23 05:46:12;;;;;;;44.60;17.70;;;13.00;99.90;;;;;;5063197;28;20035;-74
2023/05/23 05:48:37;;;;;;;37.30;16.83;;;13.00;99.90;;;;;;5056704;28;20424;-70
2023/05/23 05:51:03;;;;;;;41.90;17.35;;;13.00;99.90;;;;;;5057489;28;20052;-76
2023/05/23 05:53:29;;;;;;;42.20;17.48;;;13.10;99.90;;;;;;5050116;28;20030;-73
2023/05/23 05:55:55;;;;;;;46.25;18.35;;;13.10;99.90;;;;;;5058210;28;20079;-73
2023/05/23 05:58:21;;;;;;;38.10;15.43;;;13.10;99.90;;;;;;5060342;28;20036;-72
2023/05/23 06:00:49;;;;;;;30.83;13.80;;;13.10;99.90;;;;;;5061089;28;20107;-72
2023/05/23 06:03:15;;;;;;;34.92;13.55;;;13.00;99.90;;;;;;5062319;28;20077;-69
2023/05/23 06:05:40;;;;;;;38.67;14.80;;;13.00;99.90;;;;;;5062437;28;20461;-73
2023/05/23 06:08:06;;;;;;;38.92;13.63;;;13.00;99.90;;;;;;5060933;28;20025;-69
2023/05/23 06:10:32;;;;;;;35.17;13.18;;;13.00;99.90;;;;;;5060298;28;20024;-70
2023/05/23 06:12:58;;;;;;;37.38;13.38;;;12.90;99.90;;;;;;5062384;28;20025;-70
2023/05/23 06:15:24;;;;;;;39.10;12.57;;;12.80;99.90;;;;;;5062219;28;20048;-70
2023/05/23 06:17:50;;;;;;;35.85;11.35;;;12.90;99.90;;;;;;5060174;28;20050;-72
2023/05/23 06:20:16;;;;;;;32.42;10.68;;;12.90;99.90;;;;;;5062548;28;20096;-69
2023/05/23 06:22:41;;;;;;;34.72;10.48;;;12.90;99.90;;;;;;5061463;28;20077;-74
2023/05/23 06:25:07;;;;;;;35.22;12.13;;;12.80;99.90;;;;;;5062081;28;20028;-72
2023/05/23 06:27:33;;;;;;;25.70;10.25;;;12.80;99.90;;;;;;5061728;28;20033;-71
2023/05/23 06:29:58;;;;;;;32.08;10.00;;;12.80;99.90;;;;;;5060369;28;20028;-70
2023/05/23 06:32:24;;;;;;;22.95;9.57;;;12.80;99.90;;;;;;5062546;28;20150;-74
2023/05/23 06:34:49;;;;;;;33.47;9.05;;;12.80;99.90;;;;;;5060524;28;20662;-71
2023/05/23 06:37:16;;;;;;;21.15;8.85;;;12.80;99.90;;;;;;5061996;28;20239;-71
2023/05/23 06:39:42;;;;;;;27.73;9.45;;;12.80;99.90;;;;;;5062012;28;20021;-72
2023/05/23 06:42:11;;;;;;;30.75;8.95;;;12.80;99.90;;;;;;5062238;28;20100;-72
2023/05/23 06:44:36;;;;;;;24.48;8.82;;;12.90;99.90;;;;;;5061003;28;20083;-69
2023/05/23 06:47:02;;;;;;;25.60;9.90;;;12.80;99.90;;;;;;5058023;28;20028;-72
2023/05/23 06:49:28;;;;;;;26.88;8.68;;;12.80;99.90;;;;;;5055768;28;20088;-71
2023/05/23 06:51:53;;;;;;;29.65;8.10;;;12.90;99.90;;;;;;5057376;28;20039;-70
2023/05/23 06:54:19;;;;;;;27.77;8.07;;;12.80;99.90;;;;;;5060236;28;20486;-72
2023/05/23 06:56:45;;;;;;;28.73;7.53;;;12.80;99.90;;;;;;5056658;28;20033;-72
2023/05/23 06:59:10;;;;;;;23.48;6.38;;;12.80;99.90;;;;;;5057018;28;20029;-70
2023/05/23 07:01:36;;;;;;;22.75;6.22;;;12.70;99.90;;;;;;5059795;28;20021;-72
2023/05/23 07:04:02;;;;;;;20.35;6.30;;;12.70;99.90;;;;;;5061118;28;20024;-72
2023/05/23 07:06:27;;;;;;;21.98;6.15;;;12.80;99.90;;;;;;5060160;28;20025;-71
2023/05/23 07:08:53;;;;;;;18.30;5.32;;;12.70;99.90;;;;;;5061535;28;20025;-70
2023/05/23 07:11:20;;;;;;;24.45;6.07;;;12.60;99.90;;;;;;5060865;28;20036;-69
2023/05/23 07:13:46;;;;;;;22.98;5.22;;;12.60;99.90;;;;;;5059485;28;20029;-70
2023/05/23 07:16:12;;;;;;;19.40;5.22;;;12.60;99.90;;;;;;5058236;28;20037;-71
2023/05/23 07:18:38;;;;;;;19.40;5.28;;;12.60;99.90;;;;;;5061232;28;20028;-71
2023/05/23 07:21:03;;;;;;;16.17;5.32;;;12.50;99.90;;;;;;5061652;28;20029;-71
2023/05/23 07:23:33;;;;;;;20.80;5.57;;;12.50;99.90;;;;;;5061286;28;20058;-73
2023/05/23 07:25:59;;;;;;;16.50;4.60;;;12.50;99.90;;;;;;5061428;28;20085;-71
2023/05/23 07:28:24;;;;;;;20.27;5.38;;;12.50;99.90;;;;;;5060276;28;20379;-72
2023/05/23 07:30:50;;;;;;;17.95;4.80;;;12.50;99.90;;;;;;5058648;28;20920;-70
2023/05/23 07:33:15;;;;;;;16.75;5.35;;;12.50;99.90;;;;;;5059437;28;20475;-68
2023/05/23 07:35:41;;;;;;;25.13;5.88;;;12.50;99.90;;;;;;5059500;28;20046;-71
2023/05/23 07:38:06;;;;;;;16.90;5.05;;;12.50;99.90;;;;;;5058439;28;20036;-70
2023/05/23 07:40:32;;;;;;;23.85;5.60;;;12.50;99.90;;;;;;5060783;28;20143;-73
2023/05/23 07:42:59;;;;;;;19.80;5.85;;;12.40;99.90;;;;;;5059566;28;20029;-70
2023/05/23 07:45:24;;;;;;;18.42;5.15;;;12.40;99.90;;;;;;5056664;28;20025;-70
2023/05/23 07:47:50;;;;;;;19.63;5.15;;;12.30;99.90;;;;;;5060510;28;20557;-71
2023/05/23 07:50:16;;;;;;;17.40;4.82;;;12.30;99.90;;;;;;5057837;28;20041;-71
2023/05/23 07:52:42;;;;;;;19.88;4.28;;;12.30;99.90;;;;;;5058659;28;20499;-69
2023/05/23 07:55:08;;;;;;;28.20;4.35;;;12.20;99.90;;;;;;5058825;28;20041;-69
2023/05/23 07:57:34;;;;;;;13.35;3.78;;;12.20;99.90;;;;;;5060139;28;20025;-71
2023/05/23 07:59:59;;;;;;;16.33;3.97;;;12.20;99.90;;;;;;5060965;28;20929;-72
2023/05/23 08:02:25;;;;;;;16.13;3.92;;;12.10;99.90;;;;;;5055991;28;20047;-71
2023/05/23 08:04:52;;;;;;;15.35;4.28;;;12.00;99.90;;;;;;5059331;28;20060;-72
2023/05/23 08:07:18;;;;;;;19.23;4.53;;;11.90;99.90;;;;;;5056635;28;20032;-69
2023/05/23 08:09:44;;;;;;;22.63;5.45;;;11.90;99.90;;;;;;5059288;28;20037;-70
2023/05/23 08:12:10;;;;;;;26.40;5.75;;;11.80;99.90;;;;;;5059213;28;20052;-74
2023/05/23 08:14:35;;;;;;;22.65;5.85;;;11.90;99.90;;;;;;5059805;28;20033;-69
2023/05/23 08:17:01;;;;;;;19.38;5.93;;;11.90;99.90;;;;;;5059127;28;20956;-72
2023/05/23 08:19:27;;;;;;;29.85;6.03;;;11.90;99.90;;;;;;5059643;28;20031;-71
2023/05/23 08:21:53;;;;;;;30.83;6.70;;;11.90;99.90;;;;;;5060447;28;20066;-71
2023/05/23 08:24:20;;;;;;;31.92;6.93;;;11.80;99.90;;;;;;5060418;28;20093;-69
2023/05/23 08:26:45;;;;;;;31.10;6.43;;;11.80;99.90;;;;;;5063303;28;20025;-70
2023/05/23 08:29:11;;;;;;;29.65;7.20;;;11.80;99.90;;;;;;5063673;28;20071;-72
2023/05/23 08:31:37;;;;;;;30.08;7.20;;;11.90;99.90;;;;;;5063146;28;20056;-69
2023/05/23 08:34:03;;;;;;;23.88;5.95;;;11.90;99.90;;;;;;5062942;28;20037;-72
2023/05/23 08:36:30;;;;;;;21.65;6.30;;;11.80;99.90;;;;;;5063431;28;20052;-70
2023/05/23 08:38:56;;;;;;;33.95;5.90;;;11.80;99.90;;;;;;5064276;28;20047;-70
2023/05/23 08:41:23;;;;;;;22.52;5.95;;;11.80;99.90;;;;;;5061828;28;20089;-71
2023/05/23 08:43:49;;;;;;;30.48;5.88;;;11.80;99.90;;;;;;5060693;28;20225;-73
2023/05/23 08:46:15;;;;;;;33.38;5.78;;;11.90;99.90;;;;;;5061787;28;20029;-71
2023/05/23 08:48:42;;;;;;;26.38;5.15;;;11.80;99.90;;;;;;5061789;28;20021;-71
2023/05/23 08:51:12;;;;;;;23.73;5.57;;;11.80;99.90;;;;;;5062728;28;20053;-69
2023/05/23 08:53:45;;;;;;;21.85;5.53;;;11.80;99.90;;;;;;5062260;28;20052;-72
2023/05/23 08:56:12;;;;;;;24.03;4.73;;;11.80;99.90;;;;;;5063939;28;20029;-71
2023/05/23 08:58:41;;;;;;;24.75;5.70;;;11.90;99.90;;;;;;5063299;28;20021;-71
2023/05/23 09:01:07;;;;;;;23.45;5.95;;;11.90;99.90;;;;;;5061294;28;20027;-69
2023/05/23 09:03:36;;;;;;;29.55;5.72;;;12.00;99.90;;;;;;5064275;28;20055;-71
2023/05/23 09:06:04;;;;;;;23.38;5.80;;;12.00;99.90;;;;;;5062267;28;20024;-70
2023/05/23 09:08:31;;;;;;;17.35;4.75;;;12.00;99.90;;;;;;5062226;28;20028;-71
2023/05/23 09:10:56;;;;;;;23.02;5.85;;;12.00;99.90;;;;;;5060898;28;20024;-72
2023/05/23 09:13:22;;;;;;;19.60;4.95;;;12.00;99.90;;;;;;5063857;28;20021;-69
2023/05/23 09:16:00;;;;;;;28.15;5.40;;;12.00;99.90;;;;;;5061992;28;20037;-70
2023/05/23 09:18:26;;;;;;;24.02;6.00;;;12.10;99.90;;;;;;5061676;28;20040;-70
2023/05/23 09:20:52;;;;;;;23.67;5.88;;;12.10;99.90;;;;;;5059213;28;20022;-73
2023/05/23 09:23:18;;;;;;;21.73;4.93;;;12.20;99.90;;;;;;5058953;28;20033;-71
2023/05/23 09:25:48;;;;;;;30.02;5.43;;;12.20;99.90;;;;;;5060173;28;20044;-71
2023/05/23 09:28:14;;;;;;;26.77;5.63;;;12.20;99.90;;;;;;5058872;28;20465;-70
2023/05/23 09:30:39;;;;;;;26.80;5.32;;;12.30;99.90;;;;;;5062978;28;20052;-73
2023/05/23 09:33:06;;;;;;;20.88;5.28;;;12.30;99.90;;;;;;5061588;28;20062;-73
2023/05/23 09:35:32;;;;;;;25.00;5.47;;;12.20;99.90;;;;;;5062433;28;20057;-72
2023/05/23 09:37:58;;;;;;;23.90;5.68;;;12.20;99.90;;;;;;5062892;28;20029;-71
2023/05/23 09:40:29;;;;;;;42.88;6.18;;;12.20;99.90;;;;;;5062315;28;20017;-72
2023/05/23 09:43:02;;;;;;;29.58;5.28;;;12.30;99.90;;;;;;5063308;28;20045;-72
2023/05/23 09:45:32;;;;;;;19.95;5.30;;;12.10;99.90;;;;;;5060866;28;20033;-71
2023/05/23 09:47:57;;;;;;;23.17;5.00;;;12.20;99.90;;;;;;5062116;28;20033;-71
2023/05/23 09:50:29;;;;;;;30.58;5.18;;;12.30;99.90;;;;;;5063227;28;20053;-69
2023/05/23 09:52:55;;;;;;;29.85;5.03;;;12.30;99.90;;;;;;5063135;28;20021;-72
2023/05/23 09:55:27;;;;;;;29.92;5.57;;;12.40;99.90;;;;;;5063155;28;20482;-71
2023/05/23 09:57:55;;;;;;;23.08;5.22;;;12.40;99.90;;;;;;5062890;28;20025;-71
2023/05/23 10:00:23;;;;;;;23.13;4.78;;;12.40;99.90;;;;;;5062441;28;20116;-70
2023/05/23 10:03:04;;;;;;;21.40;4.78;;;12.50;99.90;;;;;;5061039;28;20474;-71
2023/05/23 10:05:37;;;;;;;26.83;4.95;;;12.50;99.90;;;;;;5062416;28;20020;-72
2023/05/23 10:08:09;;;;;;;26.83;5.45;;;12.70;99.90;;;;;;5062673;28;20473;-71
2023/05/23 10:10:55;;;;;;;28.17;5.05;;;12.70;99.90;;;;;;5060804;28;20035;-71
2023/05/23 10:13:25;;;;;;;24.13;4.90;;;12.90;99.90;;;;;;5060503;28;20040;-70
2023/05/23 10:15:54;;;;;;;20.50;4.88;;;13.20;99.90;;;;;;5060396;28;20037;-70
2023/05/23 10:18:25;;;;;;;22.38;4.70;;;13.40;99.90;;;;;;5061104;28;20556;-70
2023/05/23 10:20:56;;;;;;;25.42;4.47;;;13.50;99.90;;;;;;5062242;28;20021;-70
2023/05/23 10:23:22;;;;;;;21.77;5.00;;;13.60;99.90;;;;;;5061858;28;20028;-72
2023/05/23 10:25:48;;;;;;;16.63;4.63;;;13.60;99.90;;;;;;5058680;28;20368;-73
2023/05/23 10:28:14;;;;;;;21.20;4.40;;;13.70;99.90;;;;;;5061109;28;20058;-71
2023/05/23 10:30:43;;;;;;;26.55;6.50;;;13.70;99.90;;;;;;5061840;28;20048;-72
2023/05/23 10:33:11;;;;;;;18.42;4.15;;;13.70;99.90;;;;;;5061776;28;20029;-71
2023/05/23 10:35:58;;;;;;;19.42;4.40;;;13.70;99.90;;;;;;5059471;28;20041;-71
2023/05/23 10:38:43;;;;;;;26.55;4.70;;;13.60;99.90;;;;;;5060542;28;20711;-72
2023/05/23 10:41:20;;;;;;;;;;;13.60;99.90;;;;;;5062106;28;20017;-72
2023/05/23 10:44:16;;;;;;;21.80;4.68;;;13.60;99.90;;;;;;5062282;28;19912;-74
2023/05/23 10:47:02;;;;;;;24.10;4.38;;;13.60;99.90;;;;;;5060537;28;20029;-70
2023/05/23 10:49:46;;;;;;;27.80;4.57;;;13.60;99.90;;;;;;5059923;28;20029;-74
2023/05/23 10:52:15;;;;;;;23.55;4.75;;;13.80;99.90;;;;;;5059169;28;20032;-70
2023/05/23 10:54:52;;;;;;;26.08;5.22;;;13.80;99.90;;;;;;5056217;28;20040;-72
2023/05/23 10:57:21;;;;;;;27.88;5.60;;;13.60;99.90;;;;;;5059749;28;20040;-71
2023/05/23 10:59:49;;;;;;;24.58;5.65;;;13.50;99.90;;;;;;5061503;28;20036;-71
2023/05/23 11:02:18;;;;;;;21.45;4.82;;;13.50;99.90;;;;;;5058264;28;20017;-72
2023/05/23 11:04:44;;;;;;;25.88;4.38;;;13.50;99.90;;;;;;5060838;28;20039;-69
2023/05/23 11:07:29;;;;;;;20.02;4.25;;;13.50;99.90;;;;;;5059465;28;20401;-73
2023/05/23 11:10:12;;;;;;;22.77;4.63;;;13.50;99.90;;;;;;5060793;28;20448;-72
2023/05/23 11:12:42;;;;;;;24.23;5.20;;;13.70;99.90;;;;;;5060858;28;20044;-71
2023/05/23 11:15:26;;;;;;;24.20;5.35;;;13.90;99.90;;;;;;5056441;28;20025;-71
2023/05/23 11:17:54;;;;;;;30.95;4.82;;;13.80;99.90;;;;;;5059265;28;20083;-70
2023/05/23 11:20:30;;;;;;;20.63;5.25;;;13.90;99.90;;;;;;5061511;28;20059;-73
2023/05/23 11:23:01;;;;;;;22.52;5.82;;;14.00;99.90;;;;;;5060538;28;20917;-71
2023/05/23 11:25:44;;;;;;;20.25;4.07;;;14.00;99.90;;;;;;5060227;28;20036;-73
2023/05/23 11:28:12;;;;;;;21.52;5.50;;;14.00;99.90;;;;;;5060668;28;20021;-72
2023/05/23 11:30:39;;;;;;;27.98;5.47;;;14.00;99.90;;;;;;5060416;28;20017;-68
2023/05/23 11:33:08;;;;;;;25.30;5.28;;;14.00;99.90;;;;;;5061014;28;20025;-72
2023/05/23 11:35:35;;;;;;;22.40;6.40;;;14.00;99.90;;;;;;5061171;28;20041;-69
2023/05/23 11:38:03;;;;;;;25.13;5.10;;;13.80;99.90;;;;;;5060006;28;20493;-69
2023/05/23 11:40:38;;;;;;;30.48;5.30;;;14.00;99.90;;;;;;5059213;28;20028;-69
2023/05/23 11:43:06;;;;;;;24.83;5.40;;;14.00;99.90;;;;;;5060986;28;20028;-69
2023/05/23 11:45:33;;;;;;;22.35;5.57;;;13.90;99.90;;;;;;5059842;28;20029;-71
2023/05/23 11:48:11;;;;;;;27.95;5.65;;;14.00;99.90;;;;;;5061592;28;20021;-72
2023/05/23 11:50:47;;;;;;;31.05;5.75;;;14.00;99.90;;;;;;5060831;28;20059;-69
2023/05/23 11:53:16;;;;;;;22.15;5.07;;;13.90;99.90;;;;;;5061109;28;20028;-70
2023/05/23 11:55:52;;;;;;;28.98;6.30;;;13.80;99.90;;;;;;5060925;28;20042;-69
2023/05/23 11:58:25;;;;;;;37.92;5.70;;;13.80;99.90;;;;;;5061048;28;20032;-70
2023/05/23 12:00:50;;;;;;;29.95;5.47;;;13.80;99.90;;;;;;5064959;28;20033;-69
2023/05/23 12:03:16;;;;;;;22.50;5.22;;;13.80;99.90;;;;;;5065256;28;20040;-70
2023/05/23 12:05:43;;;;;;;32.58;5.85;;;13.90;99.90;;;;;;5064062;28;20025;-69
2023/05/23 12:08:11;;;;;;;32.85;5.03;;;14.10;99.90;;;;;;5061961;28;20025;-71
2023/05/23 12:10:36;;;;;;;23.92;4.57;;;14.30;99.90;;;;;;5063612;28;20021;-69
2023/05/23 12:13:03;;;;;;;19.33;4.47;;;14.70;99.90;;;;;;5063330;28;20029;-72
2023/05/23 12:15:29;;;;;;;19.85;4.75;;;14.90;99.90;;;;;;5062887;28;20013;-73
2023/05/23 12:17:55;;;;;;;12.43;3.70;;;15.00;99.90;;;;;;5062114;28;20269;-71
2023/05/23 12:20:21;;;;;;;19.20;4.30;;;15.20;99.90;;;;;;5063086;28;20021;-71
2023/05/23 12:22:47;;;;;;;21.58;4.70;;;15.10;99.90;;;;;;5063139;28;20025;-69
2023/05/23 12:25:13;;;;;;;23.10;4.55;;;14.90;99.90;;;;;;5063084;28;20043;-69
2023/05/23 12:27:40;;;;;;;19.58;4.28;;;14.60;99.90;;;;;;5059503;28;20037;-70
2023/05/23 12:30:10;;;;;;;27.25;4.32;;;14.50;99.90;;;;;;5061642;28;20382;-70
2023/05/23 12:32:40;;;;;;;24.05;4.88;;;14.40;99.90;;;;;;5062222;28;20159;-69